Archival Weather

Norman Y Mineta San Jose Intl

San Jose, California (KSJC)

Report from: Tuesday, February 27, 2024 2:53 PM PST
Current time: Friday, June 14, 2024 5:33 AM PDT

Current weather – Weather history – Daily summaries
Weather forecast

Temperature17.2°C (63.0°F)
Dew point2.8°C (37.0°F)
Winds 7 kts (3.6 m/s, 8.1 mph) Northwest (310°)
Visibility10 mi. (16.1 km)
Clouds Scattered clouds 9,000 ft. (2,743 m)
Altimeter30.05 in.Hg (1018 mB)
Relative humidity38 %
Density altitude232 ft. (71 m)
Sea-level pressure101.7 kPa (1017 mB, 30.04 in.Hg)
Remarks System requires maintenance
Automated weather observing station with precipitation discriminator
Flight conditions Visual Meteorological Conditions
Raw dataKSJC 272253Z 31007KT 10SM SCT090 17/03 A3005 RMK AO2 SLP174 T01720028 $
An error has occurred. This application may no longer respond until reloaded. Reload 🗙